createdAt,value
2022-12-03T00:02:13.475Z,4.74
2022-12-03T00:04:40.683Z,4.62
2022-12-03T00:07:07.359Z,4.57
2022-12-03T00:09:34.010Z,4.64
2022-12-03T00:12:00.720Z,4.67
2022-12-03T00:14:27.566Z,4.76
2022-12-03T00:16:54.198Z,4.80
2022-12-03T00:19:21.184Z,4.85
2022-12-03T00:21:47.927Z,4.91
2022-12-03T00:24:14.620Z,4.90
2022-12-03T00:26:41.364Z,4.86
2022-12-03T00:29:08.040Z,4.88
2022-12-03T00:31:34.726Z,4.83
2022-12-03T00:34:01.539Z,4.70
2022-12-03T00:36:28.299Z,4.83
2022-12-03T00:38:55.147Z,4.60
2022-12-03T00:41:21.920Z,4.63
2022-12-03T00:43:48.553Z,4.74
2022-12-03T00:46:20.930Z,4.75
2022-12-03T00:48:48.135Z,4.74
2022-12-03T00:51:14.829Z,4.65
2022-12-03T00:53:41.610Z,4.37
2022-12-03T00:56:08.623Z,4.59
2022-12-03T00:58:35.303Z,4.69
2022-12-03T01:01:02.676Z,4.72
2022-12-03T01:03:29.609Z,4.81
2022-12-03T01:05:56.256Z,4.74
2022-12-03T01:08:23.052Z,4.80
2022-12-03T01:10:49.704Z,4.72
2022-12-03T01:13:16.354Z,4.67
2022-12-03T01:15:43.331Z,4.43
2022-12-03T01:18:10.038Z,4.47
2022-12-03T01:20:36.826Z,4.39
2022-12-03T01:23:03.536Z,4.59
2022-12-03T01:25:30.758Z,4.69
2022-12-03T01:27:57.381Z,4.72
2022-12-03T01:30:24.039Z,4.77
2022-12-03T01:32:50.735Z,4.82
2022-12-03T01:35:17.438Z,4.78
2022-12-03T01:37:44.189Z,4.82
2022-12-03T01:40:14.694Z,4.60
2022-12-03T01:42:42.378Z,4.83
2022-12-03T01:45:22.190Z,4.64
2022-12-03T01:47:49.593Z,4.41
2022-12-03T01:50:32.377Z,4.27
2022-12-03T01:53:01.979Z,4.41
2022-12-03T01:55:29.342Z,4.41
2022-12-03T01:57:59.227Z,4.50
2022-12-03T02:00:27.420Z,4.58
2022-12-03T02:02:57.327Z,4.62
2022-12-03T02:05:27.335Z,4.63
2022-12-03T02:07:54.654Z,4.66
2022-12-03T02:10:34.338Z,4.59
2022-12-03T02:13:07.940Z,4.67
2022-12-03T02:15:36.053Z,4.54
2022-12-03T02:18:02.912Z,4.69
2022-12-03T02:20:33.168Z,4.64
2022-12-03T02:23:22.754Z,4.67
2022-12-03T02:25:49.525Z,4.59
2022-12-03T02:28:16.166Z,4.59
2022-12-03T02:30:42.844Z,4.42
2022-12-03T02:33:09.527Z,4.46
2022-12-03T02:35:37.522Z,4.18
2022-12-03T02:38:24.251Z,4.38
2022-12-03T02:40:55.200Z,4.59
2022-12-03T02:43:23.006Z,4.61
2022-12-03T02:45:53.584Z,4.67
2022-12-03T02:48:34.621Z,4.54
2022-12-03T02:51:05.446Z,4.52
2022-12-03T02:53:36.975Z,4.54
2022-12-03T02:56:05.045Z,4.63
2022-12-03T02:58:33.549Z,4.64
2022-12-03T03:01:03.074Z,4.60
2022-12-03T03:03:32.433Z,4.69
2022-12-03T03:06:02.734Z,4.75
2022-12-03T03:08:30.935Z,4.73
2022-12-03T03:11:00.359Z,4.73
2022-12-03T03:13:36.603Z,4.80
2022-12-03T03:16:05.256Z,4.86
2022-12-03T03:18:33.278Z,4.76
2022-12-03T03:21:00.338Z,4.67
2022-12-03T03:23:27.742Z,4.56
2022-12-03T03:25:59.937Z,4.40
2022-12-03T03:28:28.421Z,4.58
2022-12-03T03:30:55.762Z,4.37
2022-12-03T03:33:22.448Z,4.34
2022-12-03T03:35:49.370Z,4.25
2022-12-03T03:38:19.068Z,4.42
2022-12-03T03:40:48.095Z,4.51
2022-12-03T03:43:15.589Z,4.45
2022-12-03T03:45:43.424Z,4.46
2022-12-03T03:48:11.256Z,4.44
2022-12-03T03:50:38.077Z,4.55
2022-12-03T03:53:05.775Z,4.59
2022-12-03T03:55:33.120Z,4.59
2022-12-03T03:58:00.156Z,4.60
2022-12-03T04:00:27.014Z,4.75
2022-12-03T04:02:54.003Z,4.69
2022-12-03T04:05:23.167Z,4.82
2022-12-03T04:07:50.371Z,4.87
2022-12-03T04:10:43.343Z,4.81
2022-12-03T04:13:10.031Z,4.84
2022-12-03T04:15:36.755Z,4.76
2022-12-03T04:18:22.003Z,4.44
2022-12-03T04:20:48.792Z,4.58
2022-12-03T04:23:15.436Z,4.69
2022-12-03T04:26:00.701Z,4.62
2022-12-03T04:28:45.718Z,4.47
2022-12-03T04:31:31.059Z,4.52
2022-12-03T04:34:16.206Z,4.29
2022-12-03T04:36:42.897Z,4.51
2022-12-03T04:39:09.515Z,4.60
2022-12-03T04:41:36.199Z,4.70
2022-12-03T04:44:32.387Z,4.75
2022-12-03T04:47:11.009Z,4.71
2022-12-03T04:49:41.051Z,4.82
2022-12-03T04:52:08.629Z,4.72
2022-12-03T04:54:36.158Z,4.42
2022-12-03T04:57:03.622Z,4.51
2022-12-03T04:59:30.821Z,4.55
2022-12-03T05:01:57.516Z,4.62
2022-12-03T05:04:24.257Z,4.57
2022-12-03T05:06:51.048Z,4.59
2022-12-03T05:09:17.933Z,4.54
2022-12-03T05:11:44.767Z,4.66
2022-12-03T05:14:12.156Z,4.52
2022-12-03T05:16:39.102Z,4.38
2022-12-03T05:19:07.453Z,4.56
2022-12-03T05:21:34.425Z,4.63
2022-12-03T05:24:01.230Z,4.64
2022-12-03T05:26:27.996Z,4.72
2022-12-03T05:28:54.720Z,4.71
2022-12-03T05:31:26.483Z,4.68
2022-12-03T05:33:54.780Z,4.52
2022-12-03T05:36:21.589Z,4.65
2022-12-03T05:38:48.494Z,4.65
2022-12-03T05:41:34.070Z,4.52
2022-12-03T05:44:00.694Z,4.54
2022-12-03T05:46:27.529Z,4.59
2022-12-03T05:48:54.296Z,4.55
2022-12-03T05:51:20.975Z,4.64
2022-12-03T05:53:47.610Z,4.71
2022-12-03T05:56:14.241Z,4.75
2022-12-03T05:58:40.946Z,4.71
2022-12-03T06:01:07.622Z,4.71
2022-12-03T06:03:34.450Z,4.70
2022-12-03T06:06:01.163Z,4.55
2022-12-03T06:08:27.897Z,4.37
2022-12-03T06:10:54.611Z,4.38
2022-12-03T06:13:21.223Z,4.51
2022-12-03T06:15:47.989Z,4.56
2022-12-03T06:18:14.739Z,4.75
2022-12-03T06:20:41.473Z,4.72
2022-12-03T06:23:08.291Z,4.82
2022-12-03T06:25:34.930Z,4.90
2022-12-03T06:28:01.667Z,4.95
2022-12-03T06:30:28.320Z,5.00
2022-12-03T06:32:55.117Z,5.02
2022-12-03T06:35:21.843Z,4.84
2022-12-03T06:37:48.525Z,4.70
2022-12-03T06:40:16.872Z,4.73
2022-12-03T06:42:43.629Z,4.63
2022-12-03T06:45:11.122Z,4.88
2022-12-03T06:47:37.856Z,4.90
2022-12-03T06:50:06.321Z,5.03
2022-12-03T06:52:33.019Z,4.77
2022-12-03T06:54:59.748Z,4.87
2022-12-03T06:57:26.654Z,4.72
2022-12-03T06:59:53.520Z,4.80
2022-12-03T07:02:20.387Z,5.09
2022-12-03T07:04:47.091Z,5.19
2022-12-03T07:07:14.435Z,5.32
2022-12-03T07:09:41.165Z,5.38
2022-12-03T07:12:07.847Z,5.39
2022-12-03T07:14:34.449Z,5.52
2022-12-03T07:17:01.310Z,5.60
2022-12-03T07:19:32.507Z,5.61
2022-12-03T07:22:00.151Z,5.49
2022-12-03T07:24:27.344Z,5.72
2022-12-03T07:26:54.016Z,5.79
2022-12-03T07:29:20.702Z,5.57
2022-12-03T07:31:47.422Z,5.34
2022-12-03T07:34:14.215Z,5.27
2022-12-03T07:36:40.985Z,5.15
2022-12-03T07:39:07.677Z,5.15
2022-12-03T07:41:34.557Z,5.34
2022-12-03T07:44:01.211Z,5.63
2022-12-03T07:46:43.870Z,5.75
2022-12-03T07:49:12.175Z,5.91
2022-12-03T07:51:39.211Z,6.07
2022-12-03T07:54:05.985Z,6.12
2022-12-03T07:56:32.670Z,6.11
2022-12-03T07:58:59.382Z,6.27
2022-12-03T08:01:26.139Z,6.23
2022-12-03T08:03:52.807Z,6.29
2022-12-03T08:06:19.458Z,6.47
2022-12-03T08:08:46.071Z,6.42
2022-12-03T08:11:15.077Z,6.40
2022-12-03T08:13:41.776Z,6.66
2022-12-03T08:16:26.749Z,6.61
2022-12-03T08:18:57.615Z,6.38
2022-12-03T08:21:24.272Z,6.26
2022-12-03T08:23:51.000Z,6.42
2022-12-03T08:26:24.997Z,6.54
2022-12-03T08:28:55.124Z,6.50
2022-12-03T08:31:32.306Z,6.73
2022-12-03T08:34:15.728Z,6.68
2022-12-03T08:36:42.431Z,6.71
2022-12-03T08:39:23.094Z,6.41
2022-12-03T08:42:14.191Z,6.31
2022-12-03T08:44:43.614Z,6.42
2022-12-03T08:47:10.272Z,6.28
2022-12-03T08:49:37.855Z,6.23
2022-12-03T08:52:18.695Z,6.45
2022-12-03T08:54:53.695Z,6.37
2022-12-03T08:57:30.458Z,6.66
2022-12-03T09:00:16.243Z,6.75
2022-12-03T09:02:47.975Z,6.87
2022-12-03T09:05:23.579Z,7.02
2022-12-03T09:07:50.372Z,6.95
2022-12-03T09:10:17.262Z,7.20
2022-12-03T09:12:43.862Z,7.22
2022-12-03T09:15:11.112Z,7.28
2022-12-03T09:17:37.775Z,6.82
2022-12-03T09:20:05.881Z,6.74
2022-12-03T09:22:33.083Z,7.03
2022-12-03T09:25:00.282Z,6.91
2022-12-03T09:27:27.020Z,7.04
2022-12-03T09:29:53.688Z,6.84
2022-12-03T09:32:20.738Z,7.05
2022-12-03T09:34:47.516Z,7.30
2022-12-03T09:37:14.182Z,7.06
2022-12-03T09:39:40.919Z,7.21
2022-12-03T09:42:08.273Z,7.39
2022-12-03T09:44:36.155Z,7.31
2022-12-03T09:47:04.778Z,7.39
2022-12-03T09:49:33.441Z,7.65
2022-12-03T09:52:03.111Z,7.74
2022-12-03T09:54:32.375Z,7.66
2022-12-03T09:57:04.343Z,7.84
2022-12-03T09:59:33.385Z,7.44
2022-12-03T10:02:01.206Z,7.65
2022-12-03T10:04:29.744Z,7.87
2022-12-03T10:06:58.459Z,7.84
2022-12-03T10:09:28.250Z,7.76
2022-12-03T10:11:57.372Z,7.91
2022-12-03T10:14:24.642Z,7.85
2022-12-03T10:16:51.652Z,7.57
2022-12-03T10:19:27.856Z,7.83
2022-12-03T10:21:55.812Z,8.03
2022-12-03T10:24:29.053Z,7.25
2022-12-03T10:27:01.472Z,6.98
2022-12-03T10:29:34.681Z,7.36
2022-12-03T10:32:03.166Z,7.71
2022-12-03T10:34:37.151Z,7.95
2022-12-03T10:37:09.690Z,8.11
2022-12-03T10:40:00.382Z,7.35
2022-12-03T10:42:29.934Z,7.18
2022-12-03T10:45:13.395Z,7.35
2022-12-03T10:47:40.331Z,7.76
2022-12-03T10:50:18.594Z,7.62
2022-12-03T10:52:46.677Z,7.49
2022-12-03T10:55:14.930Z,7.33
2022-12-03T10:57:45.581Z,7.52
2022-12-03T11:00:18.593Z,7.14
2022-12-03T11:02:49.397Z,7.41
2022-12-03T11:05:26.849Z,7.55
2022-12-03T11:07:54.118Z,7.45
2022-12-03T11:10:21.199Z,7.49
2022-12-03T11:13:25.451Z,7.65
2022-12-03T11:15:53.255Z,7.94
2022-12-03T11:18:38.477Z,8.14
2022-12-03T11:21:13.512Z,8.38
2022-12-03T11:23:46.672Z,8.34
2022-12-03T11:26:18.795Z,8.32
2022-12-03T11:28:46.396Z,8.08
2022-12-03T11:31:48.226Z,8.27
2022-12-03T11:34:21.381Z,8.06
2022-12-03T11:37:09.671Z,8.09
2022-12-03T11:39:47.936Z,8.14
2022-12-03T11:42:26.493Z,8.03
2022-12-03T11:45:11.107Z,8.05
2022-12-03T11:47:41.309Z,7.60
2022-12-03T11:50:21.882Z,7.48
2022-12-03T11:52:59.540Z,7.69
2022-12-03T11:55:31.344Z,7.62
2022-12-03T11:58:04.202Z,7.88
2022-12-03T12:00:30.980Z,8.02
2022-12-03T12:02:58.492Z,7.97
2022-12-03T12:05:28.860Z,8.34
2022-12-03T12:07:56.817Z,8.33
2022-12-03T12:10:44.393Z,8.35
2022-12-03T12:13:28.817Z,8.50
2022-12-03T12:15:55.598Z,8.55
2022-12-03T12:18:55.777Z,8.48
2022-12-03T12:21:48.146Z,8.48
2022-12-03T12:24:33.353Z,8.48
2022-12-03T12:27:07.461Z,8.45
2022-12-03T12:29:35.521Z,8.34
2022-12-03T12:32:17.261Z,8.47
2022-12-03T12:34:47.171Z,8.20
2022-12-03T12:37:21.141Z,7.42
2022-12-03T12:39:48.559Z,7.12
2022-12-03T12:42:35.516Z,7.18
2022-12-03T12:45:08.100Z,7.31
2022-12-03T12:47:35.662Z,7.37
2022-12-03T12:50:09.396Z,7.29
2022-12-03T12:52:36.839Z,7.18
2022-12-03T12:55:09.547Z,6.98
2022-12-03T12:57:36.242Z,6.81
2022-12-03T13:00:05.120Z,6.92
2022-12-03T13:02:31.869Z,6.96
2022-12-03T13:05:01.780Z,7.33
2022-12-03T13:07:28.489Z,7.35
2022-12-03T13:09:57.101Z,7.30
2022-12-03T13:12:26.737Z,7.17
2022-12-03T13:14:58.850Z,7.21
2022-12-03T13:17:26.106Z,7.14
2022-12-03T13:20:07.772Z,7.11
2022-12-03T13:22:34.836Z,7.06
2022-12-03T13:25:44.002Z,6.82
2022-12-03T13:28:08.060Z,6.78
2022-12-03T13:30:34.966Z,6.95
2022-12-03T13:33:13.619Z,7.03
2022-12-03T13:35:42.817Z,7.02
2022-12-03T13:38:15.520Z,6.94
2022-12-03T13:40:42.761Z,7.21
2022-12-03T13:43:15.665Z,6.93
2022-12-03T13:45:49.358Z,7.19
2022-12-03T13:48:24.971Z,7.16
2022-12-03T13:50:53.059Z,7.10
2022-12-03T13:53:37.171Z,7.23
2022-12-03T13:56:15.880Z,7.07
2022-12-03T13:58:42.527Z,6.93
2022-12-03T14:01:09.809Z,7.05
2022-12-03T14:03:36.530Z,6.93
2022-12-03T14:06:03.312Z,6.86
2022-12-03T14:08:30.063Z,6.88
2022-12-03T14:11:00.344Z,6.85
2022-12-03T14:13:27.391Z,6.78
2022-12-03T14:15:54.070Z,6.86
2022-12-03T14:18:21.239Z,6.68
2022-12-03T14:20:48.393Z,6.70
2022-12-03T14:23:15.702Z,6.79
2022-12-03T14:25:44.217Z,6.74
2022-12-03T14:28:11.460Z,6.89
2022-12-03T14:30:38.095Z,7.05
2022-12-03T14:33:05.745Z,7.04
2022-12-03T14:35:32.607Z,6.87
2022-12-03T14:37:59.288Z,6.74
2022-12-03T14:40:26.375Z,6.88
2022-12-03T14:42:53.090Z,6.67
2022-12-03T14:45:20.945Z,6.47
2022-12-03T14:47:47.610Z,6.64
2022-12-03T14:50:14.942Z,6.70
2022-12-03T14:52:41.720Z,6.69
2022-12-03T14:55:08.799Z,6.81
2022-12-03T14:57:35.498Z,6.77
2022-12-03T15:00:02.253Z,6.83
2022-12-03T15:02:30.486Z,6.74
2022-12-03T15:04:57.349Z,6.69
2022-12-03T15:07:24.033Z,6.65
2022-12-03T15:09:50.752Z,6.78
2022-12-03T15:12:17.429Z,6.76
2022-12-03T15:14:44.148Z,6.59
2022-12-03T15:17:10.925Z,6.56
2022-12-03T15:19:37.643Z,6.50
2022-12-03T15:22:04.376Z,6.43
2022-12-03T15:24:31.272Z,6.40
2022-12-03T15:26:58.016Z,6.45
2022-12-03T15:29:30.457Z,6.30
2022-12-03T15:31:59.450Z,6.46
2022-12-03T15:34:26.121Z,6.41
2022-12-03T15:36:53.169Z,6.47
2022-12-03T15:39:20.031Z,6.46
2022-12-03T15:41:48.352Z,6.47
2022-12-03T15:44:15.094Z,6.11
2022-12-03T15:46:41.852Z,6.26
2022-12-03T15:49:08.763Z,6.19
2022-12-03T15:51:35.409Z,5.97
2022-12-03T15:54:02.071Z,5.79
2022-12-03T15:56:28.758Z,5.67
2022-12-03T15:58:55.423Z,5.59
2022-12-03T16:01:22.173Z,5.65
2022-12-03T16:03:48.863Z,5.69
2022-12-03T16:06:15.748Z,5.69
2022-12-03T16:08:42.383Z,5.50
2022-12-03T16:11:09.170Z,5.61
2022-12-03T16:13:35.921Z,5.34
2022-12-03T16:16:02.630Z,5.49
2022-12-03T16:18:29.420Z,5.36
2022-12-03T16:20:56.244Z,5.07
2022-12-03T16:23:22.936Z,5.17
2022-12-03T16:25:49.628Z,5.11
2022-12-03T16:28:16.364Z,5.07
2022-12-03T16:30:43.119Z,4.91
2022-12-03T16:33:09.945Z,4.98
2022-12-03T16:35:36.641Z,4.98
2022-12-03T16:38:03.315Z,4.88
2022-12-03T16:40:30.067Z,5.03
2022-12-03T16:42:57.276Z,5.06
2022-12-03T16:45:29.871Z,4.94
2022-12-03T16:47:56.561Z,4.97
2022-12-03T16:50:29.355Z,4.97
2022-12-03T16:52:58.235Z,4.96
2022-12-03T16:55:25.584Z,4.92
2022-12-03T16:57:52.294Z,4.83
2022-12-03T17:00:22.094Z,4.93
2022-12-03T17:02:49.415Z,4.83
2022-12-03T17:05:16.374Z,4.81
2022-12-03T17:07:43.144Z,4.88
2022-12-03T17:10:11.024Z,4.75
2022-12-03T17:13:07.760Z,4.73
2022-12-03T17:15:24.508Z,4.83
2022-12-03T17:17:51.271Z,4.81
2022-12-03T17:20:18.616Z,4.70
2022-12-03T17:22:45.308Z,4.78
2022-12-03T17:25:12.203Z,4.63
2022-12-03T17:27:44.784Z,4.58
2022-12-03T17:30:12.846Z,4.60
2022-12-03T17:32:39.586Z,4.59
2022-12-03T17:35:10.169Z,4.66
2022-12-03T17:37:37.160Z,4.60
2022-12-03T17:40:08.947Z,4.57
2022-12-03T17:42:35.607Z,4.57
2022-12-03T17:45:02.371Z,4.60
2022-12-03T17:47:29.105Z,4.63
2022-12-03T17:49:56.126Z,4.70
2022-12-03T17:52:23.328Z,4.52
2022-12-03T17:55:09.985Z,4.61
2022-12-03T17:57:36.667Z,4.59
2022-12-03T18:00:03.905Z,4.58
2022-12-03T18:02:30.578Z,4.77
2022-12-03T18:04:57.396Z,4.67
2022-12-03T18:07:24.103Z,4.73
2022-12-03T18:09:50.794Z,4.67
2022-12-03T18:12:17.561Z,4.55
2022-12-03T18:14:44.251Z,4.53
2022-12-03T18:17:11.351Z,4.56
2022-12-03T18:19:38.048Z,4.44
2022-12-03T18:22:05.254Z,4.50
2022-12-03T18:24:32.814Z,4.48
2022-12-03T18:26:59.493Z,4.52
2022-12-03T18:29:26.328Z,4.38
2022-12-03T18:31:53.039Z,4.50
2022-12-03T18:34:19.908Z,4.49
2022-12-03T18:36:46.663Z,4.51
2022-12-03T18:39:29.217Z,4.45
2022-12-03T18:41:56.035Z,4.64
2022-12-03T18:44:22.780Z,4.56
2022-12-03T18:46:54.203Z,4.43
2022-12-03T18:49:21.892Z,4.51
2022-12-03T18:51:49.372Z,4.29
2022-12-03T18:54:17.921Z,4.30
2022-12-03T18:56:44.573Z,4.29
2022-12-03T18:59:12.318Z,4.41
2022-12-03T19:01:39.077Z,4.28
2022-12-03T19:04:05.820Z,4.31
2022-12-03T19:06:32.474Z,4.19
2022-12-03T19:08:59.279Z,4.20
2022-12-03T19:11:25.974Z,4.17
2022-12-03T19:13:52.864Z,4.24
2022-12-03T19:16:19.838Z,4.32
2022-12-03T19:18:46.564Z,4.28
2022-12-03T19:21:16.082Z,4.24
2022-12-03T19:24:04.232Z,4.11
2022-12-03T19:26:30.394Z,4.17
2022-12-03T19:28:57.464Z,4.12
2022-12-03T19:31:24.227Z,4.11
2022-12-03T19:33:51.868Z,4.07
2022-12-03T19:36:30.363Z,4.12
2022-12-03T19:38:59.676Z,4.31
2022-12-03T19:41:30.415Z,4.11
2022-12-03T19:43:58.138Z,4.14
2022-12-03T19:46:28.740Z,4.14
2022-12-03T19:48:55.460Z,4.29
2022-12-03T19:51:37.217Z,4.41
2022-12-03T19:54:06.330Z,4.37
2022-12-03T19:56:33.627Z,4.43
2022-12-03T19:59:00.419Z,4.52
2022-12-03T20:01:30.002Z,4.52
2022-12-03T20:03:58.683Z,4.57
2022-12-03T20:06:28.371Z,4.62
2022-12-03T20:09:00.456Z,4.43
2022-12-03T20:11:30.060Z,4.31
2022-12-03T20:13:59.977Z,4.27
2022-12-03T20:16:28.102Z,4.35
2022-12-03T20:19:01.859Z,4.24
2022-12-03T20:21:33.713Z,4.21
2022-12-03T20:24:00.966Z,4.21
2022-12-03T20:26:28.348Z,4.22
2022-12-03T20:28:56.714Z,4.36
2022-12-03T20:31:26.206Z,4.40
2022-12-03T20:33:56.126Z,4.35
2022-12-03T20:36:24.012Z,4.38
2022-12-03T20:38:59.248Z,4.34
2022-12-03T20:41:26.265Z,4.04
2022-12-03T20:43:54.430Z,4.38
2022-12-03T20:46:27.305Z,4.45
2022-12-03T20:48:54.374Z,4.40
2022-12-03T20:51:24.214Z,4.28
2022-12-03T20:53:51.948Z,4.16
2022-12-03T20:56:24.690Z,4.14
2022-12-03T20:58:51.339Z,4.32
2022-12-03T21:01:21.432Z,4.37
2022-12-03T21:03:48.811Z,4.52
2022-12-03T21:06:16.453Z,4.54
2022-12-03T21:08:43.866Z,4.39
2022-12-03T21:11:16.452Z,4.42
2022-12-03T21:13:44.185Z,4.31
2022-12-03T21:16:15.928Z,4.33
2022-12-03T21:18:43.404Z,4.40
2022-12-03T21:21:14.992Z,4.30
2022-12-03T21:23:45.470Z,4.27
2022-12-03T21:26:14.560Z,4.40
2022-12-03T21:28:43.431Z,4.29
2022-12-03T21:31:14.253Z,4.31
2022-12-03T21:33:41.563Z,4.27
2022-12-03T21:36:09.182Z,4.22
2022-12-03T21:38:36.609Z,4.24
2022-12-03T21:41:04.017Z,4.30
2022-12-03T21:43:32.359Z,4.06
2022-12-03T21:45:59.101Z,4.05
2022-12-03T21:48:26.239Z,4.01
2022-12-03T21:51:08.296Z,4.04
2022-12-03T21:53:41.946Z,4.09
2022-12-03T21:56:16.222Z,4.01
2022-12-03T21:58:43.722Z,3.91
2022-12-03T22:01:19.976Z,3.97
2022-12-03T22:03:47.128Z,3.71
2022-12-03T22:06:14.334Z,3.70
2022-12-03T22:08:41.783Z,3.84
2022-12-03T22:11:10.738Z,3.66
2022-12-03T22:13:38.978Z,3.67
2022-12-03T22:16:12.072Z,3.66
2022-12-03T22:18:38.973Z,3.78
2022-12-03T22:21:08.152Z,3.77
2022-12-03T22:23:35.518Z,3.94
2022-12-03T22:26:05.406Z,4.06
2022-12-03T22:28:33.191Z,3.86
2022-12-03T22:31:00.284Z,3.85
2022-12-03T22:33:27.075Z,3.66
2022-12-03T22:35:56.751Z,3.73
2022-12-03T22:38:23.916Z,3.66
2022-12-03T22:40:50.624Z,3.69
2022-12-03T22:43:18.511Z,3.90
2022-12-03T22:45:45.235Z,3.98
2022-12-03T22:48:12.002Z,3.93
2022-12-03T22:50:44.718Z,4.02
2022-12-03T22:53:12.693Z,4.13
2022-12-03T22:55:40.023Z,4.12
2022-12-03T22:58:07.967Z,4.11
2022-12-03T23:00:37.609Z,4.15
2022-12-03T23:03:05.525Z,4.25
2022-12-03T23:05:38.689Z,4.16
2022-12-03T23:08:07.858Z,4.11
2022-12-03T23:10:39.386Z,3.91
2022-12-03T23:13:06.459Z,3.97
2022-12-03T23:15:33.132Z,3.99
2022-12-03T23:18:00.124Z,3.93
2022-12-03T23:20:27.686Z,3.95
2022-12-03T23:22:55.272Z,4.11
2022-12-03T23:25:22.497Z,3.83
2022-12-03T23:27:49.193Z,3.90
2022-12-03T23:30:16.879Z,4.02
2022-12-03T23:32:44.481Z,4.26
2022-12-03T23:35:12.720Z,4.29
2022-12-03T23:37:42.540Z,4.35
2022-12-03T23:40:09.698Z,4.37
2022-12-03T23:42:36.351Z,4.34
2022-12-03T23:45:03.321Z,4.05
2022-12-03T23:47:30.256Z,4.03
2022-12-03T23:49:57.242Z,4.14
2022-12-03T23:52:24.530Z,4.29
2022-12-03T23:54:51.276Z,4.34
2022-12-03T23:57:18.469Z,4.34
2022-12-03T23:59:45.215Z,4.35
